WetterOnline ( https://www.wetteronline.de )

Wetter aktuell Lancken-Granitz

Aktuelles Wetter: Putbus/Rügen (41m)

6-stündlich | Neueste Meldungen
Ortszeit Temperatur Wetter
Di, 14.07. 14:00 23.6° C leicht bewölkt
Di, 14.07. 8:00 16.2° C bewölkt
Di, 14.07. 2:00 10.2° C leicht bewölkt
Mo, 13.07. 20:00 17.5° C wolkig
Mo, 13.07. 14:00 18.0° C wolkig
Mo, 13.07. 8:00 15.1° C leicht bewölkt
Mo, 13.07. 2:00 14.0° C bewölkt
So, 12.07. 20:00 15.8° C bewölkt
Ortszeit Temperatur Wetter
Di, 14.07. 15:00 23.3° C leicht bewölkt
Di, 14.07. 14:50 23.3° C leicht bewölkt
Di, 14.07. 14:40 23.7° C leicht bewölkt
Di, 14.07. 14:30 24.8° C wolkig
Di, 14.07. 14:20 24.8° C wolkig
Di, 14.07. 14:10 24.1° C wolkig
Di, 14.07. 14:00 23.6° C leicht bewölkt
Di, 14.07. 13:30 23.3° C leicht bewölkt
Di, 14.07. 13:00 23.6° C wolkenlos
Di, 14.07. 12:30 22.9° C wolkenlos
Di, 14.07. 12:00 22.1° C leicht bewölkt
Ortszeit Relative Feuchte Sichtweite
Di, 14.07. 14:00 50% 50 km
Di, 14.07. 8:00 72% 28 km
Di, 14.07. 2:00 95% 40 km
Mo, 13.07. 20:00 60% 65 km
Mo, 13.07. 14:00 54% >70 km
Mo, 13.07. 8:00 71% 55 km
Mo, 13.07. 2:00 78% 65 km
So, 12.07. 20:00 67% 65 km
Ortszeit Relative Feuchte Sichtweite
Di, 14.07. 15:00 49% 55 km
Di, 14.07. 14:50 49% -
Di, 14.07. 14:40 49% -
Di, 14.07. 14:30 48% >70 km
Di, 14.07. 14:20 48% -
Di, 14.07. 14:10 48% -
Di, 14.07. 14:00 50% 50 km
Di, 14.07. 13:30 51% >70 km
Di, 14.07. 13:00 48% 65 km
Di, 14.07. 12:30 49% >70 km
Di, 14.07. 12:00 50% >70 km
Ortszeit Niederschlagsmenge Niederschlagsart
Di, 14.07. 14:00 0.0 l/m2 in 6 Std. -
Di, 14.07. 8:00 0.0 l/m2 in 12 Std. -
Di, 14.07. 2:00 0.0 l/m2 in 6 Std. -
Mo, 13.07. 20:00 0.0 l/m2 in 12 Std. -
Mo, 13.07. 14:00 0.0 l/m2 in 6 Std. -
Mo, 13.07. 8:00 0.0 l/m2 in 12 Std. -
Mo, 13.07. 2:00 0.0 l/m2 in 6 Std. -
So, 12.07. 20:00 0.1 l/m2 in 12 Std. -
Ortszeit Niederschlagsmenge Niederschlagsart
Di, 14.07. 15:00 0.0 l/m2 in 1 Std. -
Di, 14.07. 14:50 keine Meldung -
Di, 14.07. 14:40 keine Meldung -
Di, 14.07. 14:30 0.0 l/m2 in 1 Std. -
Di, 14.07. 14:20 keine Meldung -
Di, 14.07. 14:10 keine Meldung -
Di, 14.07. 14:00 0.0 l/m2 in 1 Std. -
Di, 14.07. 13:30 0.0 l/m2 in 1 Std. -
Di, 14.07. 13:00 0.0 l/m2 in 1 Std. -
Di, 14.07. 12:30 0.0 l/m2 in 1 Std. -
Di, 14.07. 12:00 0.0 l/m2 in 1 Std. -
Ortszeit Stärke Spitze Richtung
km/h Bft. km/h Grad Sektor
Di, 14.07. 14:00 13 3 22 120° SO
Di, 14.07. 8:00 7 2 22 160° S
Di, 14.07. 2:00 9 2 19 210° SW
Mo, 13.07. 20:00 13 3 39 300° NW
Mo, 13.07. 14:00 24 4 39 300° NW
Mo, 13.07. 8:00 19 3 33 290° W
Mo, 13.07. 2:00 13 3 37 280° W
So, 12.07. 20:00 19 3 48 280° W
Ortszeit Stärke Spitze Richtung
km/h Bft. km/h Grad Sektor
Di, 14.07. 15:00 9 2 26 130° SO
Di, 14.07. 14:50 9 2 - 130° SO
Di, 14.07. 14:40 11 2 - 110° O
Di, 14.07. 14:30 11 2 22 130° SO
Di, 14.07. 14:20 11 2 - 130° SO
Di, 14.07. 14:10 11 2 - 150° SO
Di, 14.07. 14:00 13 3 22 120° SO
Di, 14.07. 13:30 13 3 20 130° SO
Di, 14.07. 13:00 9 2 19 150° SO
Di, 14.07. 12:30 9 2 17 160° S
Di, 14.07. 12:00 11 2 18 160° S
Ortszeit Untergrenze Bedeckung Gattung
total tief tief mittel hoch
Di, 14.07. 14:00 2100 m 8/8 1/8 - - -
Di, 14.07. 8:00 1800 m 8/8 5/8 - - -
Di, 14.07. 2:00 9000 m 6/8 0/8 - - -
Mo, 13.07. 20:00 6900 m 8/8 8/8 - - -
Mo, 13.07. 14:00 1020 m 7/8 2/8 - - -
Mo, 13.07. 8:00 630 m 5/8 3/8 - - -
Mo, 13.07. 2:00 900 m 7/8 7/8 - - -
So, 12.07. 20:00 840 m 7/8 7/8 - - -
Ortszeit Bedeckungsgrad in Achtel und Wolkenuntergrenze
Di, 14.07. 15:00 3(2700m)
Di, 14.07. 14:50 3(2700m)
Di, 14.07. 14:40 2(2100m) 2(2700m)
Di, 14.07. 14:30 3(2100m) 6(5700m) 7(6300m)
Di, 14.07. 14:20 3(2100m) 6(5700m) 7(6300m)
Di, 14.07. 14:10 1(2100m) 7(6600m) 8(7500m)
Di, 14.07. 14:00 1(2100m) 8(9000m) 8(10500m)
Di, 14.07. 13:30 5(9000m) 5(10500m) 7(10500m)
Di, 14.07. 13:00 keine Wolken
Di, 14.07. 12:30 keine Wolken
Di, 14.07. 12:00 3(6000m) 3(6900m)
Ortszeit Luftdruck NN (hPa) Tendenz (hPa in 3 Std.)
Di, 14.07. 14:00 1013 - 1,8
Di, 14.07. 8:00 1017 - 1,2
Di, 14.07. 2:00 1019 - 0,9
Mo, 13.07. 20:00 1020 - 1,2
Mo, 13.07. 14:00 1023 - 1,1
Mo, 13.07. 8:00 1025 + 0,1
Mo, 13.07. 2:00 1025 - 0,3
So, 12.07. 20:00 1025 - 0,4
Ortszeit Luftdruck NN (hPa) Tendenz (hPa in 3 Std.)
Di, 14.07. 15:00 1013 - 1,8
Di, 14.07. 14:50 1013 keine Meldung
Di, 14.07. 14:40 1013 keine Meldung
Di, 14.07. 14:30 1013 - 2,0
Di, 14.07. 14:20 1013 keine Meldung
Di, 14.07. 14:10 1013 keine Meldung
Di, 14.07. 14:00 1013 - 1,8
Di, 14.07. 13:30 1014 - 1,7
Di, 14.07. 13:00 1014 - 1,6
Di, 14.07. 12:30 1014 - 1,5
Di, 14.07. 12:00 1015 - 1,5
Ortszeit Schneehöhe (cm)
Di, 14.07. 14:00 -
Di, 14.07. 8:00 -
Di, 14.07. 2:00 -
Mo, 13.07. 20:00 -
Mo, 13.07. 14:00 -
Mo, 13.07. 8:00 -
Mo, 13.07. 2:00 -
So, 12.07. 20:00 -
Ortszeit Schneehöhe (cm)
Di, 14.07. 15:00 -
Di, 14.07. 14:50 -
Di, 14.07. 14:40 -
Di, 14.07. 14:30 -
Di, 14.07. 14:20 -
Di, 14.07. 14:10 -
Di, 14.07. 14:00 -
Di, 14.07. 13:30 -
Di, 14.07. 13:00 -
Di, 14.07. 12:30 -
Di, 14.07. 12:00 -
Link zu dieser Seite / Seite empfehlen

Das Wetter in ...